To NAV CANADA Home Page Login to a new session Search on AWWS site Feedback and Comments Disclaimer Vers la page française équivalente Tips FAQ What's new on the site To the Forecasts and Observations / NOTAM section To "File a Flight Plan" website Publications and other links Update of the User's profile FIC Telephone Numbers My Weather Data Folder Route Weather Data Regional Weather Data Local Weather Data To the Forecasts and Observations / NOTAM section
Request Generated 05/31/2016 at 21:41:00 UTC . Weather information available at that time is displayed.

METAR/TAF

EUREKA/NU    

METAR CWEU 312100Z 16008KT 15SM FEW026 FEW220 M01/M07 A3013 RMK
SC1CI1 SLP204=
METAR CWEU 312000Z 14009KT 15SM FEW012 SCT026 M01/M06 A3013 RMK
SC1SC3 SC TR SLP205=
METAR CWEU 311900Z 14011KT 15SM FEW012 SCT026 SCT110 M02/M06 A3013
RMK SC1SC3AC1 SC TR AC TR SLP204=

TAF AMD CYEU 312006Z 3120/0102 ADVISORY OFFSITE 14008KT P6SM SCT015
TEMPO 3120/0102 BKN015 PROB30 3120/0102 2SM BR BKN008
RMK NXT FCST BY 010000Z=
Your time UTC time
Weather data provided by Environment Canada and NAV CANADA